Time;durP1;ratioP1;P1;durP2;ratioP2;P2;SDS_P1;SDS_P2;PMS_P1;PMS_P2;Temp;Humidity;BMP_temperature;BMP_pressure;BME280_temperature;BME280_humidity;BME280_pressure;Samples;Min_cycle;Max_cycle;Signal;HPM_P1;HPM_P2
2024/03/05 00:00:43;;;;;;;33.43;23.07;;;11.80;99.90;;;;;;4936106;28;20435;-80
2024/03/05 00:03:09;;;;;;;36.80;23.97;;;11.80;99.90;;;;;;4912801;28;21184;-79
2024/03/05 00:05:35;;;;;;;39.30;23.70;;;11.90;99.90;;;;;;4934920;28;20473;-79
2024/03/05 00:08:04;;;;;;;40.83;25.33;;;11.80;99.90;;;;;;4937048;28;20837;-79
2024/03/05 00:10:32;;;;;;;37.80;23.40;;;11.80;99.90;;;;;;4934760;29;20458;-78
2024/03/05 00:12:58;;;;;;;37.63;24.40;;;11.80;99.90;;;;;;4949069;28;20470;-78
2024/03/05 00:15:26;;;;;;;42.80;24.27;;;11.80;99.90;;;;;;4938597;28;20463;-78
2024/03/05 00:17:55;;;;;;;39.87;25.30;;;11.80;99.90;;;;;;4940489;28;20451;-79
2024/03/05 00:20:21;;;;;;;36.67;22.90;;;11.80;99.90;;;;;;4955830;28;20435;-78
2024/03/05 00:22:47;;;;;;;36.03;23.23;;;12.00;99.90;;;;;;4954926;28;20837;-80
2024/03/05 00:25:14;;;;;;;33.70;22.17;;;11.80;99.90;;;;;;4933296;29;20762;-79
2024/03/05 00:27:44;;;;;;;35.23;23.07;;;11.80;99.90;;;;;;4934688;28;20851;-78
2024/03/05 00:30:13;;;;;;;37.73;24.03;;;11.80;99.90;;;;;;4920501;28;20466;-79
2024/03/05 00:32:39;;;;;;;36.90;23.43;;;11.80;99.90;;;;;;4940012;29;20474;-79
2024/03/05 00:35:09;;;;;;;29.93;22.00;;;11.80;99.90;;;;;;4950810;28;20447;-78
2024/03/05 00:37:35;;;;;;;39.03;23.57;;;11.80;99.90;;;;;;4940115;29;20467;-79
2024/03/05 00:40:11;;;;;;;38.00;24.40;;;11.80;99.90;;;;;;4938390;28;20984;-79
2024/03/05 00:42:39;;;;;;;39.17;23.60;;;11.80;99.90;;;;;;4944315;29;20438;-79
2024/03/05 00:45:10;;;;;;;33.40;22.43;;;11.80;99.90;;;;;;4945421;28;20477;-79
2024/03/05 00:47:37;;;;;;;35.17;23.40;;;11.80;99.90;;;;;;4943968;28;20427;-79
2024/03/05 00:50:04;;;;;;;35.30;22.67;;;11.70;99.90;;;;;;4947159;28;20485;-78
2024/03/05 00:52:31;;;;;;;36.63;23.50;;;11.70;99.90;;;;;;4946418;28;20438;-79
2024/03/05 00:54:58;;;;;;;36.53;23.80;;;11.70;99.90;;;;;;4917192;28;20479;-79
2024/03/05 00:57:28;;;;;;;42.30;26.43;;;11.70;99.90;;;;;;4938439;28;20430;-78
2024/03/05 00:59:56;;;;;;;36.40;23.10;;;11.70;99.90;;;;;;4927374;28;20525;-78
2024/03/05 01:02:24;;;;;;;36.00;22.10;;;11.60;99.90;;;;;;4923696;29;20435;-79
2024/03/05 01:04:52;;;;;;;38.97;22.87;;;11.80;99.90;;;;;;4921400;28;20832;-78
2024/03/05 01:07:21;;;;;;;34.63;22.83;;;11.70;99.90;;;;;;4938099;28;20525;-78
2024/03/05 01:09:50;;;;;;;38.33;23.30;;;11.70;99.90;;;;;;4928484;28;20856;-78
2024/03/05 01:12:16;;;;;;;37.13;21.60;;;11.70;99.90;;;;;;4920532;28;20450;-77
2024/03/05 01:14:45;;;;;;;38.60;23.40;;;11.70;99.90;;;;;;4937445;29;20502;-78
2024/03/05 01:17:12;;;;;;;38.53;23.53;;;11.70;99.90;;;;;;4958230;28;20463;-78
2024/03/05 01:19:40;;;;;;;35.50;22.37;;;11.70;99.90;;;;;;4954237;28;20560;-78
2024/03/05 01:22:08;;;;;;;38.23;22.97;;;11.70;99.90;;;;;;4943156;28;20497;-79
2024/03/05 01:24:34;;;;;;;34.53;22.30;;;11.70;99.90;;;;;;4958884;28;20459;-78
2024/03/05 01:27:00;;;;;;;37.37;23.03;;;11.70;99.90;;;;;;4941951;28;20431;-79
2024/03/05 01:29:33;;;;;;;37.77;23.43;;;11.70;99.90;;;;;;4937638;29;20432;-79
2024/03/05 01:32:02;;;;;;;37.13;24.57;;;11.70;99.90;;;;;;4932082;28;20446;-77
2024/03/05 01:34:32;;;;;;;40.03;23.87;;;11.60;99.90;;;;;;4946915;28;20496;-79
2024/03/05 01:37:01;;;;;;;38.07;23.57;;;11.60;99.90;;;;;;4941781;28;20457;-78
2024/03/05 01:39:28;;;;;;;36.40;22.63;;;11.60;99.90;;;;;;4965874;28;20419;-78
2024/03/05 01:41:58;;;;;;;37.03;22.97;;;11.60;99.90;;;;;;4964493;28;20439;-79
2024/03/05 01:44:24;;;;;;;38.23;23.97;;;11.60;99.90;;;;;;4961703;28;20451;-78
2024/03/05 01:46:53;;;;;;;39.40;23.13;;;11.60;99.90;;;;;;4957497;28;20542;-78
2024/03/05 01:49:21;;;;;;;38.10;23.17;;;11.70;99.90;;;;;;4940076;28;20439;-79
2024/03/05 01:51:48;;;;;;;39.40;23.60;;;11.60;99.90;;;;;;4950821;28;20450;-78
2024/03/05 01:54:18;;;;;;;37.40;22.07;;;11.60;99.90;;;;;;4940378;28;20474;-79
2024/03/05 01:56:48;;;;;;;43.60;24.93;;;11.70;99.90;;;;;;4943972;28;20518;-79
2024/03/05 01:59:18;;;;;;;36.10;22.90;;;11.60;99.90;;;;;;4941927;29;20462;-78
2024/03/05 02:01:47;;;;;;;36.33;22.13;;;11.70;99.90;;;;;;4956634;28;20953;-78
2024/03/05 02:04:15;;;;;;;36.87;22.20;;;11.50;99.90;;;;;;4931169;28;20426;-78
2024/03/05 02:06:44;;;;;;;36.10;23.10;;;11.50;99.90;;;;;;4938973;29;20962;-79
2024/03/05 02:09:13;;;;;;;39.57;23.30;;;11.70;99.90;;;;;;4940917;28;20430;-77
2024/03/05 02:11:43;;;;;;;36.73;24.40;;;11.60;99.90;;;;;;4922537;28;20643;-79
2024/03/05 02:14:10;;;;;;;37.13;22.47;;;11.60;99.90;;;;;;4933887;29;21291;-78
2024/03/05 02:16:40;;;;;;;34.80;21.73;;;11.50;99.90;;;;;;4919591;29;20896;-78
2024/03/05 02:19:07;;;;;;;38.53;23.03;;;11.50;99.90;;;;;;4955979;28;20549;-78
2024/03/05 02:21:35;;;;;;;38.33;22.97;;;11.50;99.90;;;;;;4938200;28;20524;-78
2024/03/05 02:24:01;;;;;;;42.30;22.63;;;11.50;99.90;;;;;;4937841;28;20514;-78
2024/03/05 02:26:29;;;;;;;37.53;22.00;;;11.50;99.90;;;;;;4936217;28;20554;-79
2024/03/05 02:28:56;;;;;;;36.10;22.80;;;11.50;99.90;;;;;;4921369;29;20230;-80
2024/03/05 02:31:25;;;;;;;38.67;23.67;;;11.50;99.90;;;;;;4936988;28;20450;-78
2024/03/05 02:33:51;;;;;;;38.13;21.80;;;11.50;99.90;;;;;;4904779;28;20574;-78
2024/03/05 02:36:17;;;;;;;38.60;22.33;;;11.50;99.90;;;;;;4934614;28;20427;-79
2024/03/05 02:38:43;;;;;;;36.13;22.20;;;11.50;99.90;;;;;;4935868;29;20467;-78
2024/03/05 02:41:10;;;;;;;37.87;22.80;;;11.80;99.90;;;;;;4933675;28;20483;-78
2024/03/05 02:43:38;;;;;;;40.20;22.77;;;11.50;99.90;;;;;;4920845;29;20202;-78
2024/03/05 02:46:04;;;;;;;38.73;22.03;;;11.40;99.90;;;;;;4955669;28;20455;-78
2024/03/05 02:48:30;;;;;;;40.70;23.97;;;11.50;99.90;;;;;;4961691;28;20437;-78
2024/03/05 02:51:01;;;;;;;35.00;22.13;;;11.50;99.90;;;;;;4938749;28;21159;-78
2024/03/05 02:53:26;;;;;;;38.53;22.30;;;11.40;99.90;;;;;;4933251;29;20211;-78
2024/03/05 02:55:52;;;;;;;35.50;21.77;;;11.40;99.90;;;;;;4953938;28;20447;-78
2024/03/05 02:58:18;;;;;;;39.20;23.47;;;11.40;99.90;;;;;;4955866;28;20212;-78
2024/03/05 03:00:44;;;;;;;34.20;20.30;;;11.40;99.90;;;;;;4954141;28;20747;-78
2024/03/05 03:03:12;;;;;;;37.87;22.70;;;11.50;99.90;;;;;;4940533;28;20644;-78
2024/03/05 03:05:41;;;;;;;38.30;22.80;;;11.40;99.90;;;;;;4942701;28;20435;-78
2024/03/05 03:08:07;;;;;;;36.80;22.93;;;11.40;99.90;;;;;;4938605;29;20439;-79
2024/03/05 03:10:32;;;;;;;38.73;22.60;;;11.40;99.90;;;;;;4955047;28;20546;-78
2024/03/05 03:12:59;;;;;;;42.47;23.10;;;11.40;99.90;;;;;;4939816;28;20442;-78
2024/03/05 03:15:26;;;;;;;38.37;22.87;;;11.40;99.90;;;;;;4917929;29;20498;-78
2024/03/05 03:17:52;;;;;;;37.27;21.57;;;11.40;99.90;;;;;;4952211;28;20514;-80
2024/03/05 03:20:18;;;;;;;37.03;23.30;;;11.50;99.90;;;;;;4939431;28;20432;-78
2024/03/05 03:22:48;;;;;;;37.50;23.00;;;11.40;99.90;;;;;;4921509;29;20455;-78
2024/03/05 03:25:18;;;;;;;40.20;22.43;;;11.40;99.90;;;;;;4936861;28;20451;-79
2024/03/05 03:27:44;;;;;;;43.03;21.90;;;11.40;99.90;;;;;;4930495;28;20450;-78
2024/03/05 03:30:17;;;;;;;40.37;20.93;;;11.40;99.90;;;;;;4936141;28;20498;-78
2024/03/05 03:32:47;;;;;;;37.40;20.80;;;11.40;99.90;;;;;;4952542;28;21085;-80
2024/03/05 03:35:19;;;;;;;40.53;21.90;;;11.40;99.90;;;;;;4916001;28;20431;-79
2024/03/05 03:37:46;;;;;;;35.50;21.90;;;11.40;99.90;;;;;;4939269;28;20480;-78
2024/03/05 03:40:20;;;;;;;34.40;20.80;;;11.40;99.90;;;;;;4920060;28;20514;-78
2024/03/05 03:42:50;;;;;;;38.00;22.33;;;11.30;99.90;;;;;;4914176;28;20435;-78
2024/03/05 03:45:17;;;;;;;39.17;22.93;;;11.50;99.90;;;;;;4938526;28;20466;-78
2024/03/05 03:47:48;;;;;;;38.67;21.77;;;11.30;99.90;;;;;;4944026;28;20418;-78
2024/03/05 03:50:14;;;;;;;39.30;23.33;;;11.40;99.90;;;;;;4936115;28;20435;-78
2024/03/05 03:52:41;;;;;;;39.33;22.77;;;11.30;99.90;;;;;;4918725;29;20538;-78
2024/03/05 03:55:08;;;;;;;42.13;22.57;;;11.30;99.90;;;;;;4934795;29;20574;-79
2024/03/05 03:57:37;;;;;;;37.10;21.77;;;11.30;99.90;;;;;;4954736;28;20427;-78
2024/03/05 04:00:07;;;;;;;31.17;19.33;;;11.50;99.90;;;;;;4943066;28;20639;-78
2024/03/05 04:02:37;;;;;;;39.20;23.60;;;11.30;99.90;;;;;;4949940;28;20436;-78
2024/03/05 04:05:04;;;;;;;36.13;21.80;;;11.30;99.90;;;;;;4952021;28;20473;-78
2024/03/05 04:07:32;;;;;;;38.73;23.30;;;11.30;99.90;;;;;;4956697;28;20469;-79
2024/03/05 04:10:00;;;;;;;37.40;21.33;;;11.30;99.90;;;;;;4935843;28;20431;-78
2024/03/05 04:12:27;;;;;;;33.30;20.90;;;11.30;99.90;;;;;;4952075;28;20538;-77
2024/03/05 04:14:55;;;;;;;35.93;20.97;;;11.30;99.90;;;;;;4941774;28;21054;-78
2024/03/05 04:17:21;;;;;;;35.00;20.30;;;11.30;99.90;;;;;;4944649;28;20486;-78
2024/03/05 04:19:50;;;;;;;34.23;19.40;;;11.30;99.90;;;;;;4955820;28;20462;-78
2024/03/05 04:22:19;;;;;;;40.57;23.03;;;11.30;99.90;;;;;;4940133;28;20478;-78
2024/03/05 04:24:56;;;;;;;43.67;23.07;;;11.30;99.90;;;;;;4928592;28;20442;-78
2024/03/05 04:27:26;;;;;;;42.53;22.40;;;11.30;99.90;;;;;;4948763;28;20514;-78
2024/03/05 04:29:59;;;;;;;36.23;21.17;;;11.30;99.90;;;;;;4913360;28;20435;-78
2024/03/05 04:32:26;;;;;;;37.73;22.90;;;11.20;99.90;;;;;;4919969;28;20555;-80
2024/03/05 04:35:01;;;;;;;37.67;22.70;;;11.30;99.90;;;;;;4933841;28;20562;-80
2024/03/05 04:37:30;;;;;;;37.23;21.13;;;11.30;99.90;;;;;;4922871;29;20493;-81
2024/03/05 04:40:01;;;;;;;41.57;21.90;;;11.30;99.90;;;;;;4938065;28;20509;-80
2024/03/05 04:42:29;;;;;;;36.67;21.57;;;11.20;99.90;;;;;;4946758;28;20518;-80
2024/03/05 04:44:59;;;;;;;37.53;22.27;;;11.30;99.90;;;;;;4956571;28;20502;-80
2024/03/05 04:47:26;;;;;;;40.17;21.17;;;11.40;99.90;;;;;;4957600;28;20435;-80
2024/03/05 04:49:55;;;;;;;39.23;22.90;;;11.30;99.90;;;;;;4941789;28;20504;-80
2024/03/05 04:52:23;;;;;;;37.03;22.30;;;11.20;99.90;;;;;;4939833;29;20491;-80
2024/03/05 04:54:51;;;;;;;36.67;22.03;;;11.20;99.90;;;;;;4925587;29;20526;-80
2024/03/05 04:57:17;;;;;;;36.73;21.27;;;11.20;99.90;;;;;;4952701;28;20187;-81
2024/03/05 04:59:43;;;;;;;40.23;23.00;;;11.30;99.90;;;;;;4928996;28;20462;-81
2024/03/05 05:02:11;;;;;;;35.70;23.37;;;11.20;99.90;;;;;;4943797;28;20463;-81
2024/03/05 05:04:41;;;;;;;33.23;20.73;;;11.20;99.90;;;;;;4951783;28;20227;-80
2024/03/05 05:07:34;;;;;;;41.23;22.30;;;11.20;99.90;;;;;;4931327;28;20430;-80
2024/03/05 05:10:00;;;;;;;38.07;22.40;;;11.20;99.90;;;;;;4932708;28;20444;-80
2024/03/05 05:12:39;;;;;;;39.57;22.17;;;11.20;99.90;;;;;;4960471;28;20463;-80
2024/03/05 05:15:07;;;;;;;36.30;21.80;;;11.20;99.90;;;;;;4957447;28;20505;-79
2024/03/05 05:17:35;;;;;;;39.47;21.47;;;11.20;99.90;;;;;;4954888;28;20473;-80
2024/03/05 05:20:07;;;;;;;40.30;23.40;;;11.20;99.90;;;;;;4946522;28;20435;-81
2024/03/05 05:22:36;;;;;;;40.63;22.50;;;11.20;99.90;;;;;;4942826;28;20478;-81
2024/03/05 05:25:08;;;;;;;35.73;21.57;;;11.20;99.90;;;;;;4960674;28;20443;-80
2024/03/05 05:27:35;;;;;;;36.27;21.13;;;11.20;99.90;;;;;;4945612;28;20484;-79
2024/03/05 05:30:06;;;;;;;41.83;22.20;;;11.20;99.90;;;;;;4929082;29;20517;-80
2024/03/05 05:32:34;;;;;;;37.30;20.77;;;11.20;99.90;;;;;;4932055;28;20467;-80
2024/03/05 05:35:01;;;;;;;41.30;22.60;;;11.20;99.90;;;;;;4931185;28;20562;-81
2024/03/05 05:37:29;;;;;;;43.27;21.73;;;11.20;99.90;;;;;;4967488;28;20446;-81
2024/03/05 05:39:55;;;;;;;34.10;20.57;;;11.20;99.90;;;;;;4947207;28;20442;-80
2024/03/05 05:42:24;;;;;;;36.53;21.83;;;11.10;99.90;;;;;;4963518;28;20446;-80
2024/03/05 05:44:52;;;;;;;39.30;23.87;;;11.10;99.90;;;;;;4962163;28;20957;-80
2024/03/05 05:47:22;;;;;;;37.00;20.93;;;11.10;99.90;;;;;;4928988;29;20450;-80
2024/03/05 05:49:48;;;;;;;33.30;20.40;;;11.10;99.90;;;;;;4927139;28;20443;-81
2024/03/05 05:52:14;;;;;;;36.30;22.23;;;11.10;99.90;;;;;;4943749;29;20522;-79
2024/03/05 05:54:43;;;;;;;37.90;22.00;;;11.10;99.90;;;;;;4919573;29;20486;-80
2024/03/05 05:57:10;;;;;;;37.30;22.47;;;11.10;99.90;;;;;;4935113;29;21018;-80
2024/03/05 05:59:41;;;;;;;40.57;23.47;;;11.10;99.90;;;;;;4955229;28;20441;-81
2024/03/05 06:02:12;;;;;;;38.13;21.43;;;11.10;99.90;;;;;;4954489;28;20428;-79
2024/03/05 06:04:41;;;;;;;40.60;22.20;;;11.10;99.90;;;;;;4956876;28;20764;-79
2024/03/05 06:07:07;;;;;;;37.13;21.50;;;11.10;99.90;;;;;;4944387;28;20434;-80
2024/03/05 06:09:35;;;;;;;39.33;21.10;;;11.10;99.90;;;;;;4937710;28;20461;-80
2024/03/05 06:12:04;;;;;;;39.30;21.77;;;11.10;99.90;;;;;;4941822;28;20976;-82
2024/03/05 06:14:31;;;;;;;39.37;22.47;;;11.10;99.90;;;;;;4943175;28;20470;-80
2024/03/05 06:16:59;;;;;;;34.90;20.60;;;11.10;99.90;;;;;;4918949;28;20442;-82
2024/03/05 06:19:30;;;;;;;42.33;22.57;;;11.10;99.90;;;;;;4943558;28;20537;-78
2024/03/05 06:22:00;;;;;;;42.73;22.33;;;11.10;99.90;;;;;;4939188;28;20433;-81
2024/03/05 06:24:28;;;;;;;32.33;19.87;;;11.00;99.90;;;;;;4924788;28;20795;-81
2024/03/05 06:26:54;;;;;;;38.00;21.90;;;11.10;99.90;;;;;;4956495;28;20527;-80
2024/03/05 06:29:20;;;;;;;38.73;20.70;;;11.10;99.90;;;;;;4935316;29;20554;-81
2024/03/05 06:31:47;;;;;;;34.57;20.90;;;11.10;99.90;;;;;;4931966;28;20204;-81
2024/03/05 06:34:15;;;;;;;42.20;21.43;;;11.10;99.90;;;;;;4920550;28;20475;-80
2024/03/05 06:36:44;;;;;;;33.70;20.80;;;11.20;99.90;;;;;;4944280;28;20431;-80
2024/03/05 06:39:19;;;;;;;35.40;20.03;;;11.10;99.90;;;;;;4924345;28;20438;-81
2024/03/05 06:41:48;;;;;;;34.10;20.20;;;11.10;99.90;;;;;;4949513;28;20426;-79
2024/03/05 06:44:25;;;;;;;36.10;22.23;;;11.30;99.90;;;;;;4932031;28;20521;-78
2024/03/05 06:46:56;;;;;;;36.10;21.13;;;11.10;99.90;;;;;;4955371;28;20460;-79
2024/03/05 06:49:29;;;;;;;36.17;21.77;;;11.10;99.90;;;;;;4935815;29;20440;-81
2024/03/05 06:56:39;;;;;;;35.37;20.87;;;11.10;99.90;;;;;;4936246;28;20541;-82
2024/03/05 06:57:30;;;;;;;37.53;21.03;;;11.10;99.90;;;;;;4934777;28;20443;-78
2024/03/05 06:59:56;;;;;;;37.80;20.30;;;11.10;99.90;;;;;;4934317;28;20513;-81
2024/03/05 07:02:30;;;;;;;36.10;22.00;;;11.10;99.90;;;;;;4956091;28;20435;-80
2024/03/05 07:04:58;;;;;;;37.57;20.37;;;11.10;99.90;;;;;;4952010;28;20443;-81
2024/03/05 07:07:25;;;;;;;38.07;21.50;;;11.00;99.90;;;;;;4954082;28;20600;-80
2024/03/05 07:09:54;;;;;;;45.07;19.40;;;11.20;99.90;;;;;;4916275;28;20445;-80
2024/03/05 07:12:24;;;;;;;36.10;19.43;;;11.00;99.90;;;;;;4936961;28;21064;-80
2024/03/05 07:14:52;;;;;;;37.10;20.30;;;11.10;99.90;;;;;;4931524;28;20463;-80
2024/03/05 07:17:21;;;;;;;36.13;20.13;;;11.10;99.90;;;;;;4933917;29;20434;-81
2024/03/05 07:19:47;;;;;;;35.40;20.67;;;11.10;99.90;;;;;;4934442;28;20557;-80
2024/03/05 07:22:15;;;;;;;34.90;19.37;;;11.10;99.90;;;;;;4934775;28;21066;-81
2024/03/05 07:24:41;;;;;;;32.00;18.03;;;11.10;99.90;;;;;;4940650;28;20453;-81
2024/03/05 07:27:11;;;;;;;32.93;20.70;;;11.00;99.90;;;;;;4937890;28;20439;-80
2024/03/05 07:29:38;;;;;;;33.97;20.00;;;11.10;99.90;;;;;;4918312;28;20904;-81
2024/03/05 07:32:07;;;;;;;34.03;19.70;;;11.10;99.90;;;;;;4918896;28;20490;-81
2024/03/05 07:34:35;;;;;;;34.43;20.17;;;11.10;99.90;;;;;;4934265;29;20655;-79
2024/03/05 07:37:05;;;;;;;34.77;19.30;;;11.10;99.90;;;;;;4954288;28;20450;-80
2024/03/05 07:39:31;;;;;;;33.63;19.57;;;11.10;99.90;;;;;;4951531;28;20427;-80
2024/03/05 07:42:02;;;;;;;34.83;19.40;;;11.10;99.90;;;;;;4921364;28;20435;-81
2024/03/05 07:44:31;;;;;;;30.10;19.03;;;11.10;99.90;;;;;;4964331;28;20469;-80
2024/03/05 07:46:59;;;;;;;35.90;21.07;;;11.00;99.90;;;;;;4950662;28;20465;-79
2024/03/05 07:49:27;;;;;;;35.57;19.87;;;11.10;99.90;;;;;;4937594;28;20447;-80
2024/03/05 07:51:53;;;;;;;35.67;20.40;;;11.10;99.90;;;;;;4937247;28;20498;-79
2024/03/05 07:54:19;;;;;;;34.53;19.17;;;11.00;99.90;;;;;;4917095;28;1185868;-80
2024/03/05 07:56:46;;;;;;;33.17;18.97;;;11.30;99.90;;;;;;4912750;28;20567;-80
2024/03/05 07:59:14;;;;;;;34.53;19.63;;;11.10;99.90;;;;;;4937576;28;20434;-78
2024/03/05 08:01:40;;;;;;;30.40;19.03;;;11.00;99.90;;;;;;4921039;28;20219;-78
2024/03/05 08:04:07;;;;;;;35.50;19.73;;;11.10;99.90;;;;;;4936319;28;21206;-79
2024/03/05 08:06:33;;;;;;;31.20;18.13;;;11.00;99.90;;;;;;4934272;28;20435;-79
2024/03/05 08:08:58;;;;;;;30.77;18.07;;;11.00;99.90;;;;;;4950196;28;20947;-79
2024/03/05 08:11:24;;;;;;;31.70;18.03;;;11.00;99.90;;;;;;4918658;28;20647;-79
2024/03/05 08:13:53;;;;;;;33.13;18.57;;;10.90;99.90;;;;;;4950533;28;20470;-78
2024/03/05 08:16:18;;;;;;;33.70;19.57;;;11.20;99.90;;;;;;4939618;29;20290;-80
2024/03/05 08:18:45;;;;;;;32.50;18.30;;;11.00;99.90;;;;;;4935411;28;21470;-79
2024/03/05 08:21:14;;;;;;;37.40;21.00;;;11.00;99.90;;;;;;4934665;28;21228;-80
2024/03/05 08:23:40;;;;;;;32.50;20.53;;;11.10;99.90;;;;;;4953037;28;20574;-78
2024/03/05 08:26:08;;;;;;;33.43;18.97;;;11.00;99.90;;;;;;4931391;28;21116;-80
2024/03/05 08:28:41;;;;;;;32.30;19.07;;;11.00;99.90;;;;;;4936260;28;20430;-79
2024/03/05 08:31:10;;;;;;;33.87;20.43;;;11.00;99.90;;;;;;4954335;28;20478;-80
2024/03/05 08:33:38;;;;;;;28.90;19.60;;;11.00;99.90;;;;;;4916778;29;20502;-80
2024/03/05 08:36:06;;;;;;;32.80;18.00;;;11.10;99.90;;;;;;4917775;28;20451;-79
2024/03/05 08:38:35;;;;;;;29.77;19.07;;;11.00;99.90;;;;;;4936204;28;20431;-78
2024/03/05 08:41:01;;;;;;;33.23;18.90;;;11.00;99.90;;;;;;4905316;28;20556;-79
2024/03/05 08:43:30;;;;;;;36.47;20.80;;;11.00;99.90;;;;;;4933862;28;20628;-79
2024/03/05 08:45:56;;;;;;;36.50;20.77;;;11.00;99.90;;;;;;4942889;29;20431;-80
2024/03/05 08:48:28;;;;;;;35.20;20.67;;;11.00;99.90;;;;;;4947594;28;20447;-79
2024/03/05 08:50:54;;;;;;;31.57;18.53;;;11.00;99.90;;;;;;4957304;28;20458;-79
2024/03/05 08:53:23;;;;;;;33.17;18.43;;;11.00;99.90;;;;;;4935338;28;20952;-79
2024/03/05 08:55:49;;;;;;;35.50;19.17;;;11.10;99.90;;;;;;4932119;29;20947;-79
2024/03/05 08:58:14;;;;;;;31.80;18.00;;;11.00;99.90;;;;;;4933580;28;20469;-80
2024/03/05 09:00:40;;;;;;;34.70;20.67;;;11.10;99.90;;;;;;4939126;28;20215;-80
2024/03/05 09:03:08;;;;;;;30.80;18.60;;;11.10;99.90;;;;;;4944986;28;20415;-79
2024/03/05 09:05:35;;;;;;;31.57;19.70;;;11.00;99.90;;;;;;4957556;28;20670;-80
2024/03/05 09:08:01;;;;;;;33.97;20.73;;;11.10;99.90;;;;;;4927808;28;20485;-78
2024/03/05 09:10:27;;;;;;;39.47;20.70;;;11.00;99.90;;;;;;4928692;28;20439;-78
2024/03/05 09:12:55;;;;;;;32.83;20.03;;;11.20;99.90;;;;;;4957642;28;20458;-80
2024/03/05 09:15:21;;;;;;;32.73;19.90;;;11.10;99.90;;;;;;4945454;28;20830;-78
2024/03/05 09:17:49;;;;;;;32.90;20.03;;;11.10;99.90;;;;;;4936334;28;20440;-79
2024/03/05 09:20:15;;;;;;;37.63;20.90;;;11.00;99.90;;;;;;4957838;28;20534;-79
2024/03/05 09:22:45;;;;;;;39.33;21.93;;;11.10;99.90;;;;;;4940836;28;20434;-80
2024/03/05 09:25:12;;;;;;;32.93;19.50;;;11.10;99.90;;;;;;4955595;28;20775;-79
2024/03/05 09:27:40;;;;;;;37.63;19.90;;;11.10;99.90;;;;;;4951210;28;20795;-79
2024/03/05 09:30:08;;;;;;;36.23;21.57;;;11.00;99.90;;;;;;4938906;28;20911;-79
2024/03/05 09:32:36;;;;;;;33.17;20.07;;;11.00;99.90;;;;;;4935484;28;20447;-79
2024/03/05 09:35:09;;;;;;;33.30;19.40;;;11.10;99.90;;;;;;4918074;28;20475;-79
2024/03/05 09:37:36;;;;;;;33.60;19.90;;;11.10;99.90;;;;;;4940329;28;20521;-79
2024/03/05 09:40:16;;;;;;;34.67;20.20;;;11.10;99.90;;;;;;4959934;28;20493;-79
2024/03/05 09:42:43;;;;;;;33.63;19.67;;;11.00;99.90;;;;;;4936892;28;20502;-79
2024/03/05 09:45:14;;;;;;;36.87;21.00;;;11.00;99.90;;;;;;4939368;28;20466;-79
2024/03/05 09:47:43;;;;;;;32.00;21.20;;;11.10;99.90;;;;;;4933540;29;21308;-79
2024/03/05 09:50:13;;;;;;;38.40;21.80;;;11.10;99.90;;;;;;4943042;29;20458;-79
2024/03/05 09:52:40;;;;;;;34.97;21.60;;;11.10;99.90;;;;;;4967983;28;20453;-79
2024/03/05 09:55:06;;;;;;;39.57;21.70;;;11.00;99.90;;;;;;4911008;29;20603;-79
2024/03/05 09:57:35;;;;;;;36.63;20.63;;;11.10;99.90;;;;;;4923366;28;20476;-78
2024/03/05 10:00:07;;;;;;;43.83;23.47;;;11.10;99.90;;;;;;4928376;28;21290;-79
2024/03/05 10:02:38;;;;;;;41.73;23.17;;;11.00;99.90;;;;;;4935964;28;20497;-79
2024/03/05 10:05:09;;;;;;;41.10;23.33;;;11.10;99.90;;;;;;4936043;28;20479;-79
2024/03/05 10:07:35;;;;;;;37.10;21.27;;;11.10;99.90;;;;;;4923765;28;20474;-79
2024/03/05 10:10:11;;;;;;;36.37;21.10;;;11.10;99.90;;;;;;4940869;29;20502;-79
2024/03/05 10:12:41;;;;;;;35.57;21.27;;;11.10;99.90;;;;;;4923041;28;20446;-79
2024/03/05 10:15:13;;;;;;;31.80;20.33;;;11.40;99.90;;;;;;4953733;28;20498;-79
2024/03/05 10:17:49;;;;;;;44.87;24.10;;;11.10;99.90;;;;;;4902408;29;20839;-80
2024/03/05 10:20:27;;;;;;;35.47;20.10;;;10.80;99.90;;;;;;4921086;28;20451;-78
2024/03/05 10:22:58;;;;;;;39.00;20.60;;;11.10;99.90;;;;;;4921719;28;20911;-79
2024/03/05 10:25:31;;;;;;;36.73;22.27;;;11.10;99.90;;;;;;4935993;29;20423;-80
2024/03/05 10:28:00;;;;;;;37.97;21.30;;;11.10;99.90;;;;;;4958542;28;20429;-80
2024/03/05 10:30:32;;;;;;;36.33;20.13;;;11.20;99.90;;;;;;4938016;29;20438;-79
2024/03/05 10:33:12;;;;;;;39.93;22.57;;;11.10;99.90;;;;;;4952030;28;20912;-79
2024/03/05 10:35:41;;;;;;;33.70;20.17;;;11.10;99.90;;;;;;4917872;28;20466;-79
2024/03/05 10:38:09;;;;;;;33.63;20.60;;;11.10;99.90;;;;;;4936342;28;20431;-78
2024/03/05 10:40:39;;;;;;;33.17;20.80;;;11.10;99.90;;;;;;4940179;29;20478;-80
2024/03/05 10:43:12;;;;;;;34.40;20.33;;;11.10;99.90;;;;;;4955535;28;20458;-78
2024/03/05 10:45:44;;;;;;;33.00;20.53;;;11.10;99.90;;;;;;4934260;29;20459;-79
2024/03/05 10:48:15;;;;;;;32.13;19.07;;;11.10;99.90;;;;;;4949422;28;20859;-79
2024/03/05 10:50:43;;;;;;;35.47;21.00;;;11.10;99.90;;;;;;4939859;29;20423;-79
2024/03/05 10:53:16;;;;;;;26.90;18.23;;;11.10;99.90;;;;;;4937851;28;20515;-80
2024/03/05 10:55:47;;;;;;;30.33;19.00;;;11.10;99.90;;;;;;4927672;29;20451;-78
2024/03/05 10:58:21;;;;;;;30.20;18.43;;;11.10;99.90;;;;;;4945452;28;20430;-79
2024/03/05 11:00:52;;;;;;;31.17;18.50;;;11.10;99.90;;;;;;4921770;29;20966;-79
2024/03/05 11:03:35;;;;;;;30.60;18.73;;;11.10;99.90;;;;;;4940021;28;20446;-79
2024/03/05 11:06:03;;;;;;;32.43;20.03;;;11.10;99.90;;;;;;4953862;28;20889;-80
2024/03/05 11:08:35;;;;;;;33.33;18.83;;;11.10;99.90;;;;;;4925457;28;20778;-80
2024/03/05 11:11:18;;;;;;;29.60;18.20;;;11.20;99.90;;;;;;4955055;28;21014;-78
2024/03/05 11:13:49;;;;;;;30.13;18.30;;;11.20;99.90;;;;;;4922956;28;20475;-79
2024/03/05 11:16:16;;;;;;;30.13;19.80;;;11.20;99.90;;;;;;4938499;28;20443;-79
2024/03/05 11:18:44;;;;;;;31.63;19.20;;;11.20;99.90;;;;;;4940107;28;20525;-80
2024/03/05 11:21:12;;;;;;;26.50;16.20;;;11.40;99.90;;;;;;4921875;28;20424;-80
2024/03/05 11:23:41;;;;;;;28.87;17.63;;;11.20;99.90;;;;;;4935703;28;20435;-79
2024/03/05 11:26:16;;;;;;;29.10;17.53;;;11.20;99.90;;;;;;4924223;28;20427;-78
2024/03/05 11:28:42;;;;;;;31.87;19.67;;;11.10;99.90;;;;;;4919934;28;20433;-79
2024/03/05 11:31:16;;;;;;;34.57;18.30;;;11.20;99.90;;;;;;4935432;29;20449;-79
2024/03/05 11:33:45;;;;;;;26.07;16.00;;;11.20;99.90;;;;;;4930513;29;20467;-78
2024/03/05 11:36:23;;;;;;;23.60;16.10;;;11.20;99.90;;;;;;4955079;28;20505;-79
2024/03/05 11:39:00;;;;;;;26.37;17.57;;;11.20;99.90;;;;;;4933980;29;20451;-79
2024/03/05 11:41:34;;;;;;;26.70;17.10;;;11.20;99.90;;;;;;4937270;28;20598;-79
2024/03/05 11:44:03;;;;;;;29.73;18.50;;;11.20;99.90;;;;;;4949524;28;20430;-79
2024/03/05 11:46:49;;;;;;;28.73;18.07;;;11.20;99.90;;;;;;4931757;29;20451;-78
2024/03/05 11:49:19;;;;;;;34.57;20.37;;;11.20;99.90;;;;;;4958155;28;20427;-78
2024/03/05 11:51:46;;;;;;;31.77;19.07;;;11.20;99.90;;;;;;4950446;28;20915;-79
2024/03/05 11:54:14;;;;;;;28.07;18.20;;;11.20;99.90;;;;;;4936139;28;20479;-79
2024/03/05 11:56:56;;;;;;;26.57;17.07;;;11.20;99.90;;;;;;4957121;28;20419;-79
2024/03/05 11:59:36;;;;;;;29.63;18.17;;;11.20;99.90;;;;;;4945698;29;20483;-79
2024/03/05 12:02:15;;;;;;;26.43;16.73;;;11.20;99.90;;;;;;4926369;28;20473;-79
2024/03/05 12:04:42;;;;;;;24.47;17.10;;;11.20;99.90;;;;;;4919800;28;20433;-79
2024/03/05 12:07:12;;;;;;;32.33;18.10;;;11.20;99.90;;;;;;4951593;28;20491;-79
2024/03/05 12:09:39;;;;;;;26.93;16.97;;;11.20;99.90;;;;;;4947539;28;20452;-78
2024/03/05 12:12:16;;;;;;;28.23;18.20;;;11.10;99.90;;;;;;4942124;28;20546;-80
2024/03/05 12:14:54;;;;;;;29.07;18.03;;;11.20;99.90;;;;;;4935220;29;21279;-80
2024/03/05 12:17:22;;;;;;;24.40;16.80;;;11.20;99.90;;;;;;4934572;28;20435;-79
2024/03/05 12:20:07;;;;;;;31.53;18.07;;;11.20;99.90;;;;;;4951299;28;20430;-79
2024/03/05 12:22:40;;;;;;;28.00;17.03;;;11.20;99.90;;;;;;4950548;28;20487;-78
2024/03/05 12:25:10;;;;;;;23.27;16.37;;;11.20;99.90;;;;;;4929123;28;20438;-79
2024/03/05 12:27:38;;;;;;;24.63;16.70;;;11.20;99.90;;;;;;4932957;29;20541;-78
2024/03/05 12:30:06;;;;;;;27.70;17.07;;;11.20;99.90;;;;;;4936277;28;20510;-79
2024/03/05 12:32:32;;;;;;;26.30;17.80;;;11.20;99.90;;;;;;4920360;28;20844;-78
2024/03/05 12:35:00;;;;;;;26.70;17.13;;;11.20;99.90;;;;;;4932600;28;20467;-79
2024/03/05 12:37:29;;;;;;;28.00;16.97;;;11.20;99.90;;;;;;4923608;29;20761;-80